Terminal Aerodrome Forecast
Issued by NWS Jackson, KY

Home | Current Version | Previous Version | Text Only | Print | Product List | Glossary On
Versions: 1 2 3 4 5 6 7 8 9 10 11 12 13 14 15
000
FTUS43 KJKL 290535
TAFLOZ
TAF
KLOZ 290535Z 2906/3006 00000KT P6SM SKC
     FM291400 18008KT P6SM SCT250
     FM300200 20009G15KT P6SM VCSH BKN040 OVC060
     FM300500 22009KT 5SM -SHRA SCT025 OVC035=

USA.gov is the U.S. government's official web portal to all federal, state and local government web resources and services.